Othello — LXOD — position and weather

sailwx.info

Track history (hours):
 
Tides and Currents Weather Stations Pressure Air Temp Water Temp Dewpoint Dewpoint Depression Visibility Wind Speed Wind Dir Waves Ship Positions

Othello

Last reported at 2015-Jul-28 10:33 UTC. Time now 2015-Jul-31 03:07 UTC.
Position N 54°33' W 000°29'.

Length 104 m; draft 7.5 m.

Type: Ship. MMSI: 253279000.

Date/timePositionNaut miles runAvg speedWind from/ knotsBaromVisibWave heightAir tempDewpointWater temp
2015-Jul-28 10:33N 54°33' W 000°29'1111.3
2015-Jul-28 09:34N 54°25' W 000°15'1212.3
2015-Jul-28 08:33N 54°15' W 000°04'1312.7
2015-Jul-28 07:34N 54°04' E 000°07'1312.8
2015-Jul-28 06:33N 53°53' E 000°18'1312.8
2015-Jul-28 05:33N 53°42' E 000°29'4910.9
2015-Jul-28 01:07N 53°06' E 001°24'712.2
2015-Jul-28 00:34N 53°00' E 001°30'1313.1
2015-Jul-27 23:34N 52°51' E 001°46'8011.2
2015-Jul-27 16:25N 52°07' E 003°35'8 9.5
2015-Jul-27 15:34N 52°04' E 003°48'9 8.9
2015-Jul-27 14:34N 52°01' E 004°01'1111.0
2015-Jul-27 13:33N 51°55' E 004°15'5 4.8
2015-Jul-27 12:33N 51°51' E 004°21'2 1.9
2015-Jul-27 11:34N 51°51' E 004°24'7 6.8
2015-Jul-27 10:33N 51°49' E 004°34'6 6.4
2015-Jul-27 09:33N 51°42' E 004°37'2 0.7
2015-Jul-27 06:26N 51°42' E 004°34'0 0.0
2015-Jul-27 04:29N 51°42' E 004°34'0 0.0
2015-Jul-27 03:32N 51°42' E 004°34'0 0.0
2015-Jul-27 01:17N 51°42' E 004°34'0 0.0
2015-Jul-27 00:08N 51°42' E 004°34'0 0.0
2015-Jul-26 23:26N 51°42' E 004°34'0 0.0
2015-Jul-26 22:23N 51°42' E 004°34'0 0.0
2015-Jul-26 20:29N 51°42' E 004°34'0 0.0
2015-Jul-26 19:29N 51°42' E 004°34'0 0.0
2015-Jul-26 18:29N 51°42' E 004°34'0 0.0
2015-Jul-26 12:14N 51°42' E 004°34'0 0.0
2015-Jul-26 00:26N 51°42' E 004°34'0 0.0
2015-Jul-25 22:05N 51°42' E 004°34'0 0.0
2015-Jul-25 21:23N 51°42' E 004°34'0 0.0
2015-Jul-25 20:32N 51°42' E 004°34'0 0.1
2015-Jul-25 19:34N 51°42' E 004°34'6 6.1
2015-Jul-25 18:33N 51°47' E 004°37'8 7.9
2015-Jul-25 17:34N 51°50' E 004°26'6 6.5
2015-Jul-25 16:34N 51°54' E 004°17'9 9.1
2015-Jul-25 15:34N 51°59' E 004°05'6 6.2
2015-Jul-25 14:32N 51°55' E 004°13'0 0.0
2015-Jul-25 13:29N 51°55' E 004°13'0 0.0
2015-Jul-25 12:23N 51°55' E 004°13'0 0.0
2015-Jul-25 11:32N 51°55' E 004°13'0 0.0
2015-Jul-25 10:29N 51°55' E 004°13'0 0.0
2015-Jul-25 09:32N 51°55' E 004°13'0 0.0
2015-Jul-25 08:17N 51°55' E 004°13'0 0.0
2015-Jul-25 07:32N 51°55' E 004°13'0 0.0
2015-Jul-25 06:26N 51°55' E 004°13'0 0.0
2015-Jul-25 05:32N 51°55' E 004°13'0 0.0
2015-Jul-25 04:32N 51°55' E 004°13'0 0.0
2015-Jul-25 03:32N 51°55' E 004°13'0 0.0
2015-Jul-25 02:32N 51°55' E 004°13'0 0.0
2015-Jul-25 01:32N 51°55' E 004°13'0 0.0
2015-Jul-25 00:32N 51°55' E 004°13'0 0.0
2015-Jul-24 23:32N 51°55' E 004°13'0 0.0
2015-Jul-24 22:29N 51°55' E 004°13'0 0.0
2015-Jul-24 21:29N 51°55' E 004°13'0 0.0
2015-Jul-24 20:32N 51°55' E 004°13'0 0.0
2015-Jul-24 19:32N 51°55' E 004°13'0 0.0
2015-Jul-24 18:32N 51°55' E 004°13'0 0.0
2015-Jul-24 17:32N 51°55' E 004°13'0 0.0
2015-Jul-24 16:33N 51°55' E 004°13'7 7.3
2015-Jul-24 15:34N 51°59' E 004°03'10 9.9
2015-Jul-24 14:33N 51°57' E 003°48'0 0.0
2015-Jul-24 13:33N 51°57' E 003°48'0 0.0
2015-Jul-24 12:30N 51°57' E 003°48'0 0.0
2015-Jul-24 11:33N 51°57' E 003°48'0 0.0
2015-Jul-24 10:33N 51°57' E 003°48'0 0.1
2015-Jul-24 09:33N 51°57' E 003°48'1010.0
2015-Jul-24 08:33N 51°56' E 003°31'1111.1
2015-Jul-24 07:32N 51°53' E 003°14'1111.3
2015-Jul-24 06:32N 51°50' E 002°56'1111.3
2015-Jul-24 05:32N 51°46' E 002°39'1211.4
2015-Jul-24 04:26N 51°37' E 002°26'1011.0
2015-Jul-24 03:33N 51°29' E 002°16'1110.8
2015-Jul-24 02:33N 51°20' E 002°08'1010.1
2015-Jul-24 01:33N 51°12' E 001°58'10 9.9
2015-Jul-24 00:33N 51°05' E 001°46'1010.3
2015-Jul-23 23:33N 50°58' E 001°35'1010.0
2015-Jul-23 22:33N 50°49' E 001°26'1110.7
2015-Jul-23 21:33N 50°40' E 001°18'1211.5
2015-Jul-23 20:33N 50°32' E 001°05'1111.4
2015-Jul-23 19:33N 50°27' E 000°49'88 2.5
2015-Jul-22 08:27N 49°59' W 001°22'14210.2
2015-Jul-21 18:30N 49°06' W 004°45'70 9.5
2015-Jul-21 11:06N 47°60' W 005°22'811.2
2015-Jul-21 10:21N 47°53' W 005°15'1011.7
2015-Jul-21 09:29N 47°46' W 005°04'1111.8
2015-Jul-21 08:31N 47°40' W 004°49'1212.0
2015-Jul-21 07:28N 47°32' W 004°35'1212.2
2015-Jul-21 06:31N 47°25' W 004°22'1212.1
2015-Jul-21 05:34N 47°19' W 004°07'1312.5
2015-Jul-21 04:33N 47°12' W 003°51'1312.7
2015-Jul-21 03:33N 47°05' W 003°36'1313.5
2015-Jul-21 02:33N 46°56' W 003°21'1313.5
2015-Jul-21 01:34N 46°48' W 003°05'1413.6
2015-Jul-21 00:33N 46°40' W 002°50'1313.3
2015-Jul-20 23:33N 46°31' W 002°34'1312.9
2015-Jul-20 22:33N 46°24' W 002°19'1313.1
2015-Jul-20 21:33N 46°16' W 002°04'1312.7
2015-Jul-20 20:33N 46°09' W 001°49'1313.0
2015-Jul-20 19:33N 46°07' W 001°30'1010.4
2015-Jul-20 18:33N 46°08' W 001°15'2 0.7
2015-Jul-20 15:31N 46°09' W 001°13'0 0.0
2015-Jul-20 14:19N 46°09' W 001°13'0 0.0
2015-Jul-20 12:10N 46°09' W 001°13'0 0.0
2015-Jul-20 11:13N 46°09' W 001°13'0 0.0
2015-Jul-20 10:31N 46°09' W 001°13'0 0.0
2015-Jul-20 08:19N 46°09' W 001°13'0 0.0
2015-Jul-20 07:25N 46°09' W 001°13'0 0.0
2015-Jul-20 06:31N 46°09' W 001°13'0 0.0
2015-Jul-20 05:28N 46°09' W 001°13'1 1.1
2015-Jul-20 04:34N 46°09' W 001°14'5 4.6
2015-Jul-20 03:32N 46°05' W 001°17'0 0.0
2015-Jul-20 02:32N 46°05' W 001°17'0 0.1
2015-Jul-20 01:29N 46°05' W 001°17'0 0.1
2015-Jul-20 00:32N 46°05' W 001°17'0 0.1
2015-Jul-19 23:29N 46°05' W 001°17'0 0.0
2015-Jul-19 22:32N 46°05' W 001°17'1 1.1
2015-Jul-19 21:34N 46°05' W 001°19'1212.1
2015-Jul-19 20:34N 46°08' W 001°36'1312.8
2015-Jul-19 19:34N 46°05' W 001°54'  
Track history (hours):
 
Tides and Currents Weather Stations Pressure Air Temp Water Temp Dewpoint Dewpoint Depression Visibility Wind Speed Wind Dir Waves Ship Positions

Othello

Last reported at 2015-Jul-28 10:33 UTC. Time now 2015-Jul-31 03:07 UTC.
Position N 54°33' W 000°29'.

Length 104 m; draft 7.5 m.

Type: Ship. MMSI: 253279000.

Date/timePositionNaut miles runAvg speedWind from/ knotsBaromVisibWave heightAir tempDewpointWater temp
2015-Jul-28 10:33N 54°33' W 000°29'1111.3
2015-Jul-28 09:34N 54°25' W 000°15'1212.3
2015-Jul-28 08:33N 54°15' W 000°04'1312.7
2015-Jul-28 07:34N 54°04' E 000°07'1312.8
2015-Jul-28 06:33N 53°53' E 000°18'1312.8
2015-Jul-28 05:33N 53°42' E 000°29'4910.9
2015-Jul-28 01:07N 53°06' E 001°24'712.2
2015-Jul-28 00:34N 53°00' E 001°30'1313.1
2015-Jul-27 23:34N 52°51' E 001°46'8011.2
2015-Jul-27 16:25N 52°07' E 003°35'8 9.5
2015-Jul-27 15:34N 52°04' E 003°48'9 8.9
2015-Jul-27 14:34N 52°01' E 004°01'1111.0
2015-Jul-27 13:33N 51°55' E 004°15'5 4.8
2015-Jul-27 12:33N 51°51' E 004°21'2 1.9
2015-Jul-27 11:34N 51°51' E 004°24'7 6.8
2015-Jul-27 10:33N 51°49' E 004°34'6 6.4
2015-Jul-27 09:33N 51°42' E 004°37'2 0.7
2015-Jul-27 06:26N 51°42' E 004°34'0 0.0
2015-Jul-27 04:29N 51°42' E 004°34'0 0.0
2015-Jul-27 03:32N 51°42' E 004°34'0 0.0
2015-Jul-27 01:17N 51°42' E 004°34'0 0.0
2015-Jul-27 00:08N 51°42' E 004°34'0 0.0
2015-Jul-26 23:26N 51°42' E 004°34'0 0.0
2015-Jul-26 22:23N 51°42' E 004°34'0 0.0
2015-Jul-26 20:29N 51°42' E 004°34'0 0.0
2015-Jul-26 19:29N 51°42' E 004°34'0 0.0
2015-Jul-26 18:29N 51°42' E 004°34'0 0.0
2015-Jul-26 12:14N 51°42' E 004°34'0 0.0
2015-Jul-26 00:26N 51°42' E 004°34'0 0.0
2015-Jul-25 22:05N 51°42' E 004°34'0 0.0
2015-Jul-25 21:23N 51°42' E 004°34'0 0.0
2015-Jul-25 20:32N 51°42' E 004°34'0 0.1
2015-Jul-25 19:34N 51°42' E 004°34'6 6.1
2015-Jul-25 18:33N 51°47' E 004°37'8 7.9
2015-Jul-25 17:34N 51°50' E 004°26'6 6.5
2015-Jul-25 16:34N 51°54' E 004°17'9 9.1
2015-Jul-25 15:34N 51°59' E 004°05'6 6.2
2015-Jul-25 14:32N 51°55' E 004°13'0 0.0
2015-Jul-25 13:29N 51°55' E 004°13'0 0.0
2015-Jul-25 12:23N 51°55' E 004°13'0 0.0
2015-Jul-25 11:32N 51°55' E 004°13'0 0.0
2015-Jul-25 10:29N 51°55' E 004°13'0 0.0
2015-Jul-25 09:32N 51°55' E 004°13'0 0.0
2015-Jul-25 08:17N 51°55' E 004°13'0 0.0
2015-Jul-25 07:32N 51°55' E 004°13'0 0.0
2015-Jul-25 06:26N 51°55' E 004°13'0 0.0
2015-Jul-25 05:32N 51°55' E 004°13'0 0.0
2015-Jul-25 04:32N 51°55' E 004°13'0 0.0
2015-Jul-25 03:32N 51°55' E 004°13'0 0.0
2015-Jul-25 02:32N 51°55' E 004°13'0 0.0
2015-Jul-25 01:32N 51°55' E 004°13'0 0.0
2015-Jul-25 00:32N 51°55' E 004°13'0 0.0
2015-Jul-24 23:32N 51°55' E 004°13'0 0.0
2015-Jul-24 22:29N 51°55' E 004°13'0 0.0
2015-Jul-24 21:29N 51°55' E 004°13'0 0.0
2015-Jul-24 20:32N 51°55' E 004°13'0 0.0
2015-Jul-24 19:32N 51°55' E 004°13'0 0.0
2015-Jul-24 18:32N 51°55' E 004°13'0 0.0
2015-Jul-24 17:32N 51°55' E 004°13'0 0.0
2015-Jul-24 16:33N 51°55' E 004°13'7 7.3
2015-Jul-24 15:34N 51°59' E 004°03'10 9.9
2015-Jul-24 14:33N 51°57' E 003°48'0 0.0
2015-Jul-24 13:33N 51°57' E 003°48'0 0.0
2015-Jul-24 12:30N 51°57' E 003°48'0 0.0
2015-Jul-24 11:33N 51°57' E 003°48'0 0.0
2015-Jul-24 10:33N 51°57' E 003°48'0 0.1
2015-Jul-24 09:33N 51°57' E 003°48'1010.0
2015-Jul-24 08:33N 51°56' E 003°31'1111.1
2015-Jul-24 07:32N 51°53' E 003°14'1111.3
2015-Jul-24 06:32N 51°50' E 002°56'1111.3
2015-Jul-24 05:32N 51°46' E 002°39'1211.4
2015-Jul-24 04:26N 51°37' E 002°26'1011.0
2015-Jul-24 03:33N 51°29' E 002°16'1110.8
2015-Jul-24 02:33N 51°20' E 002°08'1010.1
2015-Jul-24 01:33N 51°12' E 001°58'10 9.9
2015-Jul-24 00:33N 51°05' E 001°46'1010.3
2015-Jul-23 23:33N 50°58' E 001°35'1010.0
2015-Jul-23 22:33N 50°49' E 001°26'1110.7
2015-Jul-23 21:33N 50°40' E 001°18'1211.5
2015-Jul-23 20:33N 50°32' E 001°05'1111.4
2015-Jul-23 19:33N 50°27' E 000°49'88 2.5
2015-Jul-22 08:27N 49°59' W 001°22'14210.2
2015-Jul-21 18:30N 49°06' W 004°45'70 9.5
2015-Jul-21 11:06N 47°60' W 005°22'811.2
2015-Jul-21 10:21N 47°53' W 005°15'1011.7
2015-Jul-21 09:29N 47°46' W 005°04'1111.8
2015-Jul-21 08:31N 47°40' W 004°49'1212.0
2015-Jul-21 07:28N 47°32' W 004°35'1212.2
2015-Jul-21 06:31N 47°25' W 004°22'1212.1
2015-Jul-21 05:34N 47°19' W 004°07'1312.5
2015-Jul-21 04:33N 47°12' W 003°51'1312.7
2015-Jul-21 03:33N 47°05' W 003°36'1313.5
2015-Jul-21 02:33N 46°56' W 003°21'1313.5
2015-Jul-21 01:34N 46°48' W 003°05'1413.6
2015-Jul-21 00:33N 46°40' W 002°50'1313.3
2015-Jul-20 23:33N 46°31' W 002°34'1312.9
2015-Jul-20 22:33N 46°24' W 002°19'1313.1
2015-Jul-20 21:33N 46°16' W 002°04'1312.7
2015-Jul-20 20:33N 46°09' W 001°49'1313.0
2015-Jul-20 19:33N 46°07' W 001°30'1010.4
2015-Jul-20 18:33N 46°08' W 001°15'2 0.7
2015-Jul-20 15:31N 46°09' W 001°13'0 0.0
2015-Jul-20 14:19N 46°09' W 001°13'0 0.0
2015-Jul-20 12:10N 46°09' W 001°13'0 0.0
2015-Jul-20 11:13N 46°09' W 001°13'0 0.0
2015-Jul-20 10:31N 46°09' W 001°13'0 0.0
2015-Jul-20 08:19N 46°09' W 001°13'0 0.0
2015-Jul-20 07:25N 46°09' W 001°13'0 0.0
2015-Jul-20 06:31N 46°09' W 001°13'0 0.0
2015-Jul-20 05:28N 46°09' W 001°13'1 1.1
2015-Jul-20 04:34N 46°09' W 001°14'5 4.6
2015-Jul-20 03:32N 46°05' W 001°17'0 0.0
2015-Jul-20 02:32N 46°05' W 001°17'0 0.1
2015-Jul-20 01:29N 46°05' W 001°17'0 0.1
2015-Jul-20 00:32N 46°05' W 001°17'0 0.1
2015-Jul-19 23:29N 46°05' W 001°17'0 0.0
2015-Jul-19 22:32N 46°05' W 001°17'1 1.1
2015-Jul-19 21:34N 46°05' W 001°19'1212.1
2015-Jul-19 20:34N 46°08' W 001°36'1312.8
2015-Jul-19 19:34N 46°05' W 001°54'  

Dump ship's entire track history